sensor_id;sensor_type;location;lat;lon;timestamp;pressure;altitude;pressure_sealevel;temperature;humidity
25610;BME280;13479;49.044;8.716;2023-04-28T04:01:21;98695.78;;;12.55;71.74
25610;BME280;13479;49.044;8.716;2023-04-28T04:03:46;98686.25;;;12.52;71.93
25610;BME280;13479;49.044;8.716;2023-04-28T04:06:12;98711.59;;;12.57;71.21
25610;BME280;13479;49.044;8.716;2023-04-28T04:08:37;98739.34;;;12.72;70.24
25610;BME280;13479;49.044;8.716;2023-04-28T04:11:03;98717.84;;;12.65;70.75
25610;BME280;13479;49.044;8.716;2023-04-28T04:13:28;98681.47;;;12.56;71.59
25610;BME280;13479;49.044;8.716;2023-04-28T04:15:53;98656.50;;;12.57;71.69
25610;BME280;13479;49.044;8.716;2023-04-28T04:18:19;98682.16;;;12.58;71.63
25610;BME280;13479;49.044;8.716;2023-04-28T04:20:44;98639.78;;;12.47;72.94
25610;BME280;13479;49.044;8.716;2023-04-28T04:23:09;98603.19;;;12.49;74.12
25610;BME280;13479;49.044;8.716;2023-04-28T04:25:35;98603.59;;;12.54;75.25
25610;BME280;13479;49.044;8.716;2023-04-28T04:28:00;98623.09;;;12.63;75.50
25610;BME280;13479;49.044;8.716;2023-04-28T04:30:25;98631.94;;;12.63;75.91
25610;BME280;13479;49.044;8.716;2023-04-28T04:32:50;98627.44;;;12.64;76.36
25610;BME280;13479;49.044;8.716;2023-04-28T04:35:16;98638.78;;;12.66;77.11
25610;BME280;13479;49.044;8.716;2023-04-28T04:37:41;98641.28;;;12.67;77.25
25610;BME280;13479;49.044;8.716;2023-04-28T04:40:07;98655.28;;;12.70;77.40
25610;BME280;13479;49.044;8.716;2023-04-28T04:42:32;98660.66;;;12.78;76.95
25610;BME280;13479;49.044;8.716;2023-04-28T04:44:58;98665.69;;;12.81;76.72
25610;BME280;13479;49.044;8.716;2023-04-28T04:47:23;98664.38;;;12.85;76.76
25610;BME280;13479;49.044;8.716;2023-04-28T04:49:48;98657.91;;;12.88;76.90
25610;BME280;13479;49.044;8.716;2023-04-28T04:52:14;98643.44;;;12.90;77.54
25610;BME280;13479;49.044;8.716;2023-04-28T04:54:39;98640.47;;;12.93;77.31
25610;BME280;13479;49.044;8.716;2023-04-28T04:57:05;98637.31;;;12.98;77.35
25610;BME280;13479;49.044;8.716;2023-04-28T04:59:31;98640.88;;;13.07;77.74
25610;BME280;13479;49.044;8.716;2023-04-28T05:01:56;98655.91;;;13.16;77.51
25610;BME280;13479;49.044;8.716;2023-04-28T05:04:21;98649.13;;;13.22;77.65
25610;BME280;13479;49.044;8.716;2023-04-28T05:06:47;98666.00;;;13.31;77.66
25610;BME280;13479;49.044;8.716;2023-04-28T05:09:12;98683.28;;;13.53;76.83
25610;BME280;13479;49.044;8.716;2023-04-28T05:11:37;98713.75;;;13.42;75.80
25610;BME280;13479;49.044;8.716;2023-04-28T05:14:02;98709.22;;;13.42;75.76
25610;BME280;13479;49.044;8.716;2023-04-28T05:16:28;98734.84;;;13.62;73.63
25610;BME280;13479;49.044;8.716;2023-04-28T05:18:53;98723.81;;;13.56;72.87
25610;BME280;13479;49.044;8.716;2023-04-28T05:21:18;98713.59;;;13.52;72.64
25610;BME280;13479;49.044;8.716;2023-04-28T05:23:44;98703.50;;;13.55;72.77
25610;BME280;13479;49.044;8.716;2023-04-28T05:26:09;98691.09;;;13.46;73.06
25610;BME280;13479;49.044;8.716;2023-04-28T05:28:34;98695.50;;;13.55;72.61
25610;BME280;13479;49.044;8.716;2023-04-28T05:31:00;98732.91;;;13.80;70.64
25610;BME280;13479;49.044;8.716;2023-04-28T05:33:25;98732.91;;;13.80;70.03
25610;BME280;13479;49.044;8.716;2023-04-28T05:35:50;98700.75;;;13.82;70.72
25610;BME280;13479;49.044;8.716;2023-04-28T05:38:16;98688.56;;;13.79;70.52
25610;BME280;13479;49.044;8.716;2023-04-28T05:40:41;98682.50;;;13.69;70.55
25610;BME280;13479;49.044;8.716;2023-04-28T05:43:06;98690.81;;;13.57;70.80
25610;BME280;13479;49.044;8.716;2023-04-28T05:45:31;98638.78;;;13.45;71.78
25610;BME280;13479;49.044;8.716;2023-04-28T05:47:57;98603.75;;;13.40;72.03
25610;BME280;13479;49.044;8.716;2023-04-28T05:50:22;98608.38;;;13.38;72.20
25610;BME280;13479;49.044;8.716;2023-04-28T05:52:47;98591.88;;;13.34;72.69
25610;BME280;13479;49.044;8.716;2023-04-28T05:55:12;98615.03;;;13.34;72.02
25610;BME280;13479;49.044;8.716;2023-04-28T05:57:38;98610.00;;;13.31;72.06
25610;BME280;13479;49.044;8.716;2023-04-28T06:00:03;98597.38;;;13.33;72.49
25610;BME280;13479;49.044;8.716;2023-04-28T06:02:29;98632.66;;;13.35;71.66
25610;BME280;13479;49.044;8.716;2023-04-28T06:04:54;98635.19;;;13.36;72.42
25610;BME280;13479;49.044;8.716;2023-04-28T06:07:19;98609.84;;;13.32;72.66
25610;BME280;13479;49.044;8.716;2023-04-28T06:09:45;98590.97;;;13.25;73.39
25610;BME280;13479;49.044;8.716;2023-04-28T06:12:10;98578.34;;;13.27;73.83
25610;BME280;13479;49.044;8.716;2023-04-28T06:14:36;98594.22;;;13.37;73.93
25610;BME280;13479;49.044;8.716;2023-04-28T06:17:02;98605.41;;;13.41;73.80
25610;BME280;13479;49.044;8.716;2023-04-28T06:19:27;98614.13;;;13.59;73.00
25610;BME280;13479;49.044;8.716;2023-04-28T06:21:53;98688.25;;;13.82;70.92
25610;BME280;13479;49.044;8.716;2023-04-28T06:24:18;98707.78;;;13.91;71.03
25610;BME280;13479;49.044;8.716;2023-04-28T06:26:43;98637.41;;;13.84;72.89
25610;BME280;13479;49.044;8.716;2023-04-28T06:29:08;98582.50;;;13.73;74.09
25610;BME280;13479;49.044;8.716;2023-04-28T06:31:34;98582.81;;;13.53;75.63
25610;BME280;13479;49.044;8.716;2023-04-28T06:33:59;98605.94;;;13.44;77.11
25610;BME280;13479;49.044;8.716;2023-04-28T06:36:24;98626.03;;;13.39;77.13
25610;BME280;13479;49.044;8.716;2023-04-28T06:38:50;98631.97;;;13.24;77.24
25610;BME280;13479;49.044;8.716;2023-04-28T06:41:15;98635.75;;;13.13;78.09
25610;BME280;13479;49.044;8.716;2023-04-28T06:43:40;98659.53;;;13.07;79.41
25610;BME280;13479;49.044;8.716;2023-04-28T06:46:06;98668.47;;;12.97;79.93
25610;BME280;13479;49.044;8.716;2023-04-28T06:48:31;98690.72;;;12.88;80.60
25610;BME280;13479;49.044;8.716;2023-04-28T06:50:56;98698.47;;;13.00;83.27
25610;BME280;13479;49.044;8.716;2023-04-28T06:53:22;98722.00;;;12.86;85.48
25610;BME280;13479;49.044;8.716;2023-04-28T06:55:47;98746.34;;;12.73;86.76
25610;BME280;13479;49.044;8.716;2023-04-28T06:58:12;98746.16;;;12.66;87.12
25610;BME280;13479;49.044;8.716;2023-04-28T07:00:37;98742.03;;;12.54;88.10
25610;BME280;13479;49.044;8.716;2023-04-28T07:03:03;98746.22;;;12.57;89.24
25610;BME280;13479;49.044;8.716;2023-04-28T07:05:28;98746.75;;;12.60;89.74
25610;BME280;13479;49.044;8.716;2023-04-28T07:07:53;98761.03;;;12.59;89.67
25610;BME280;13479;49.044;8.716;2023-04-28T07:10:19;98751.25;;;12.42;90.46
25610;BME280;13479;49.044;8.716;2023-04-28T07:12:44;98757.63;;;12.49;91.72
25610;BME280;13479;49.044;8.716;2023-04-28T07:15:10;98767.13;;;12.51;92.31
25610;BME280;13479;49.044;8.716;2023-04-28T07:17:35;98770.16;;;12.39;92.95
25610;BME280;13479;49.044;8.716;2023-04-28T07:20:00;98773.88;;;12.46;93.84
25610;BME280;13479;49.044;8.716;2023-04-28T07:22:26;98795.09;;;12.38;93.99
25610;BME280;13479;49.044;8.716;2023-04-28T07:24:51;98796.84;;;12.29;95.18
25610;BME280;13479;49.044;8.716;2023-04-28T07:27:17;98796.59;;;12.22;96.27
25610;BME280;13479;49.044;8.716;2023-04-28T07:29:42;98781.22;;;12.16;97.24
25610;BME280;13479;49.044;8.716;2023-04-28T07:32:08;98794.88;;;12.31;98.38
25610;BME280;13479;49.044;8.716;2023-04-28T07:34:34;98801.63;;;12.25;99.46
25610;BME280;13479;49.044;8.716;2023-04-28T07:37:01;98822.34;;;12.31;99.37
25610;BME280;13479;49.044;8.716;2023-04-28T07:39:26;98820.53;;;12.22;99.34
25610;BME280;13479;49.044;8.716;2023-04-28T07:41:52;98801.09;;;12.22;100.00
25610;BME280;13479;49.044;8.716;2023-04-28T07:44:18;98812.34;;;12.33;100.00
25610;BME280;13479;49.044;8.716;2023-04-28T07:46:43;98799.03;;;12.33;100.00
25610;BME280;13479;49.044;8.716;2023-04-28T07:49:08;98800.63;;;12.54;100.00
25610;BME280;13479;49.044;8.716;2023-04-28T07:51:33;98815.97;;;12.60;100.00
25610;BME280;13479;49.044;8.716;2023-04-28T07:53:59;98807.31;;;12.58;100.00
25610;BME280;13479;49.044;8.716;2023-04-28T07:56:24;98823.03;;;12.51;99.53
25610;BME280;13479;49.044;8.716;2023-04-28T07:58:50;98803.13;;;12.56;100.00
25610;BME280;13479;49.044;8.716;2023-04-28T08:01:16;98792.41;;;12.65;100.00
25610;BME280;13479;49.044;8.716;2023-04-28T08:03:42;98798.75;;;12.82;100.00
25610;BME280;13479;49.044;8.716;2023-04-28T08:06:07;98817.28;;;12.92;99.12
25610;BME280;13479;49.044;8.716;2023-04-28T08:08:33;98815.84;;;12.80;98.35
25610;BME280;13479;49.044;8.716;2023-04-28T08:10:59;98808.59;;;12.90;97.71
25610;BME280;13479;49.044;8.716;2023-04-28T08:13:24;98788.59;;;12.86;97.90
25610;BME280;13479;49.044;8.716;2023-04-28T08:15:49;98797.72;;;12.83;97.69
25610;BME280;13479;49.044;8.716;2023-04-28T08:18:15;98799.25;;;12.68;98.29
25610;BME280;13479;49.044;8.716;2023-04-28T08:20:40;98768.97;;;12.51;99.67
25610;BME280;13479;49.044;8.716;2023-04-28T08:23:06;98775.53;;;12.75;100.00
25610;BME280;13479;49.044;8.716;2023-04-28T08:25:32;98803.50;;;12.79;100.00
25610;BME280;13479;49.044;8.716;2023-04-28T08:27:57;98806.16;;;12.79;100.00
25610;BME280;13479;49.044;8.716;2023-04-28T08:30:23;98820.47;;;12.78;100.00
25610;BME280;13479;49.044;8.716;2023-04-28T08:32:48;98826.25;;;12.73;100.00
25610;BME280;13479;49.044;8.716;2023-04-28T08:35:13;98849.41;;;12.73;100.00
25610;BME280;13479;49.044;8.716;2023-04-28T08:37:40;98857.09;;;12.76;100.00
25610;BME280;13479;49.044;8.716;2023-04-28T08:40:06;98854.56;;;12.74;100.00
25610;BME280;13479;49.044;8.716;2023-04-28T08:42:34;98844.47;;;12.96;100.00
25610;BME280;13479;49.044;8.716;2023-04-28T08:45:02;98860.38;;;12.88;100.00
25610;BME280;13479;49.044;8.716;2023-04-28T08:47:35;98855.59;;;13.09;100.00
25610;BME280;13479;49.044;8.716;2023-04-28T08:50:06;98838.84;;;13.17;100.00
25610;BME280;13479;49.044;8.716;2023-04-28T08:52:32;98827.66;;;13.13;100.00
25610;BME280;13479;49.044;8.716;2023-04-28T08:54:59;98839.06;;;13.24;100.00
25610;BME280;13479;49.044;8.716;2023-04-28T08:57:34;98836.16;;;13.17;99.21
25610;BME280;13479;49.044;8.716;2023-04-28T09:00:00;98820.13;;;13.09;100.00
25610;BME280;13479;49.044;8.716;2023-04-28T09:02:25;98799.09;;;13.06;100.00
25610;BME280;13479;49.044;8.716;2023-04-28T09:04:50;98811.88;;;13.20;100.00
25610;BME280;13479;49.044;8.716;2023-04-28T09:07:16;98811.19;;;13.18;100.00
25610;BME280;13479;49.044;8.716;2023-04-28T09:09:41;98798.22;;;13.23;100.00
25610;BME280;13479;49.044;8.716;2023-04-28T09:12:08;98815.97;;;13.33;100.00
25610;BME280;13479;49.044;8.716;2023-04-28T09:14:35;98828.16;;;13.35;100.00
25610;BME280;13479;49.044;8.716;2023-04-28T09:17:01;98839.81;;;13.34;100.00
25610;BME280;13479;49.044;8.716;2023-04-28T09:19:34;98823.81;;;13.34;100.00
25610;BME280;13479;49.044;8.716;2023-04-28T09:22:00;98819.00;;;13.38;100.00
25610;BME280;13479;49.044;8.716;2023-04-28T09:24:39;98805.44;;;13.49;100.00
25610;BME280;13479;49.044;8.716;2023-04-28T09:27:06;98812.66;;;13.57;100.00
25610;BME280;13479;49.044;8.716;2023-04-28T09:29:35;98817.22;;;13.65;100.00
25610;BME280;13479;49.044;8.716;2023-04-28T09:32:16;98814.44;;;13.74;100.00
25610;BME280;13479;49.044;8.716;2023-04-28T09:34:47;98796.63;;;13.83;100.00
25610;BME280;13479;49.044;8.716;2023-04-28T09:37:20;98798.75;;;14.06;100.00
25610;BME280;13479;49.044;8.716;2023-04-28T09:39:47;98816.66;;;14.22;100.00
25610;BME280;13479;49.044;8.716;2023-04-28T09:42:34;98825.38;;;14.32;100.00
25610;BME280;13479;49.044;8.716;2023-04-28T09:45:10;98824.25;;;14.43;100.00
25610;BME280;13479;49.044;8.716;2023-04-28T09:47:37;98819.81;;;14.60;100.00
25610;BME280;13479;49.044;8.716;2023-04-28T09:50:04;98821.03;;;14.74;100.00
25610;BME280;13479;49.044;8.716;2023-04-28T09:52:34;98807.66;;;14.82;100.00
25610;BME280;13479;49.044;8.716;2023-04-28T09:55:05;98791.16;;;14.95;100.00
25610;BME280;13479;49.044;8.716;2023-04-28T09:57:33;98786.97;;;15.09;100.00
25610;BME280;13479;49.044;8.716;2023-04-28T09:59:59;98792.31;;;15.26;100.00
25610;BME280;13479;49.044;8.716;2023-04-28T10:02:26;98798.13;;;15.46;100.00
25610;BME280;13479;49.044;8.716;2023-04-28T10:04:51;98803.97;;;15.66;100.00
25610;BME280;13479;49.044;8.716;2023-04-28T10:07:18;98803.63;;;15.69;100.00
25610;BME280;13479;49.044;8.716;2023-04-28T10:09:45;98803.78;;;15.84;100.00
25610;BME280;13479;49.044;8.716;2023-04-28T10:12:19;98818.78;;;16.02;100.00
25610;BME280;13479;49.044;8.716;2023-04-28T10:14:45;98815.72;;;16.13;100.00
25610;BME280;13479;49.044;8.716;2023-04-28T10:17:15;98803.75;;;16.32;100.00
25610;BME280;13479;49.044;8.716;2023-04-28T10:19:42;98814.09;;;16.44;100.00
25610;BME280;13479;49.044;8.716;2023-04-28T10:27:40;98794.59;;;16.81;100.00
25610;BME280;13479;49.044;8.716;2023-04-28T10:30:13;98797.22;;;16.98;100.00
25610;BME280;13479;49.044;8.716;2023-04-28T10:32:40;98793.59;;;17.06;100.00
25610;BME280;13479;49.044;8.716;2023-04-28T10:40:33;98775.97;;;16.88;100.00
25610;BME280;13479;49.044;8.716;2023-04-28T10:43:00;98773.59;;;16.93;100.00
25610;BME280;13479;49.044;8.716;2023-04-28T10:58:38;98777.50;;;16.59;100.00
25610;BME280;13479;49.044;8.716;2023-04-28T11:01:24;98766.00;;;16.74;100.00
25610;BME280;13479;49.044;8.716;2023-04-28T11:06:26;98799.59;;;17.16;100.00
25610;BME280;13479;49.044;8.716;2023-04-28T11:11:21;98770.91;;;17.17;100.00
25610;BME280;13479;49.044;8.716;2023-04-28T11:13:48;98783.00;;;17.12;100.00
25610;BME280;13479;49.044;8.716;2023-04-28T11:16:16;98791.34;;;17.18;100.00
25610;BME280;13479;49.044;8.716;2023-04-28T11:21:16;98794.81;;;17.03;99.24
25610;BME280;13479;49.044;8.716;2023-04-28T11:23:43;98783.91;;;17.05;99.25
25610;BME280;13479;49.044;8.716;2023-04-28T11:26:09;98786.75;;;17.03;99.28
25610;BME280;13479;49.044;8.716;2023-04-28T11:28:35;98781.84;;;16.83;99.82
25610;BME280;13479;49.044;8.716;2023-04-28T11:31:12;98751.78;;;16.73;100.00
25610;BME280;13479;49.044;8.716;2023-04-28T11:33:44;98761.44;;;16.59;100.00
25610;BME280;13479;49.044;8.716;2023-04-28T11:36:21;98760.41;;;16.60;100.00
25610;BME280;13479;49.044;8.716;2023-04-28T11:38:47;98768.34;;;16.54;100.00
25610;BME280;13479;49.044;8.716;2023-04-28T11:41:13;98766.19;;;16.49;100.00
25610;BME280;13479;49.044;8.716;2023-04-28T11:43:38;98765.69;;;16.45;100.00
25610;BME280;13479;49.044;8.716;2023-04-28T11:46:06;98777.59;;;16.43;100.00
25610;BME280;13479;49.044;8.716;2023-04-28T11:48:31;98774.13;;;16.34;100.00
25610;BME280;13479;49.044;8.716;2023-04-28T11:50:57;98776.97;;;16.32;100.00
25610;BME280;13479;49.044;8.716;2023-04-28T11:53:40;98791.38;;;16.31;100.00
25610;BME280;13479;49.044;8.716;2023-04-28T11:56:05;98782.66;;;16.38;100.00
25610;BME280;13479;49.044;8.716;2023-04-28T11:58:34;98777.59;;;16.43;100.00
25610;BME280;13479;49.044;8.716;2023-04-28T12:01:12;98776.84;;;16.57;100.00
25610;BME280;13479;49.044;8.716;2023-04-28T12:06:08;98792.69;;;16.67;100.00
25610;BME280;13479;49.044;8.716;2023-04-28T12:08:33;98794.53;;;16.66;100.00
25610;BME280;13479;49.044;8.716;2023-04-28T12:11:09;98790.50;;;16.71;100.00
25610;BME280;13479;49.044;8.716;2023-04-28T12:13:35;98779.19;;;16.83;100.00
25610;BME280;13479;49.044;8.716;2023-04-28T12:16:03;98780.97;;;16.91;100.00
25610;BME280;13479;49.044;8.716;2023-04-28T12:18:30;98769.78;;;17.11;100.00
25610;BME280;13479;49.044;8.716;2023-04-28T12:20:56;98773.47;;;17.48;100.00
25610;BME280;13479;49.044;8.716;2023-04-28T12:23:31;98795.03;;;17.70;100.00
25610;BME280;13479;49.044;8.716;2023-04-28T12:25:57;98790.72;;;17.99;100.00
25610;BME280;13479;49.044;8.716;2023-04-28T12:28:23;98786.34;;;18.28;100.00
25610;BME280;13479;49.044;8.716;2023-04-28T12:30:49;98767.50;;;18.43;100.00
25610;BME280;13479;49.044;8.716;2023-04-28T12:33:22;98770.91;;;18.51;100.00
25610;BME280;13479;49.044;8.716;2023-04-28T12:35:48;98754.72;;;18.45;99.93
25610;BME280;13479;49.044;8.716;2023-04-28T12:38:14;98749.78;;;18.48;99.68
25610;BME280;13479;49.044;8.716;2023-04-28T12:40:40;98752.19;;;18.43;97.92
25610;BME280;13479;49.044;8.716;2023-04-28T12:43:05;98739.00;;;18.27;95.77
25610;BME280;13479;49.044;8.716;2023-04-28T12:45:30;98741.69;;;18.27;94.63
25610;BME280;13479;49.044;8.716;2023-04-28T12:47:57;98723.38;;;18.15;95.57
25610;BME280;13479;49.044;8.716;2023-04-28T12:50:22;98708.09;;;18.01;96.18
25610;BME280;13479;49.044;8.716;2023-04-28T12:52:48;98708.41;;;18.06;96.10
25610;BME280;13479;49.044;8.716;2023-04-28T12:55:13;98735.50;;;17.96;94.47
25610;BME280;13479;49.044;8.716;2023-04-28T12:57:39;98724.59;;;17.98;94.73
25610;BME280;13479;49.044;8.716;2023-04-28T13:00:05;98705.44;;;18.01;95.68
25610;BME280;13479;49.044;8.716;2023-04-28T13:02:30;98707.63;;;18.12;95.47
25610;BME280;13479;49.044;8.716;2023-04-28T13:04:55;98738.97;;;18.42;93.48
25610;BME280;13479;49.044;8.716;2023-04-28T13:07:21;98718.03;;;18.59;94.93
25610;BME280;13479;49.044;8.716;2023-04-28T13:09:46;98714.06;;;18.76;95.22
25610;BME280;13479;49.044;8.716;2023-04-28T13:12:12;98733.66;;;18.92;93.34
25610;BME280;13479;49.044;8.716;2023-04-28T13:14:37;98726.75;;;19.04;92.77
25610;BME280;13479;49.044;8.716;2023-04-28T13:17:03;98729.28;;;19.12;90.86
25610;BME280;13479;49.044;8.716;2023-04-28T13:19:28;98711.31;;;19.20;88.93
25610;BME280;13479;49.044;8.716;2023-04-28T13:21:55;98692.53;;;19.26;88.06
25610;BME280;13479;49.044;8.716;2023-04-28T13:24:21;98675.25;;;19.07;88.14
25610;BME280;13479;49.044;8.716;2023-04-28T13:26:46;98674.66;;;19.12;88.83
25610;BME280;13479;49.044;8.716;2023-04-28T13:29:11;98700.09;;;19.44;86.20
25610;BME280;13479;49.044;8.716;2023-04-28T13:31:36;98674.19;;;19.79;85.68
25610;BME280;13479;49.044;8.716;2023-04-28T13:34:02;98668.69;;;20.00;84.11
25610;BME280;13479;49.044;8.716;2023-04-28T13:36:29;98684.34;;;20.39;81.83
25610;BME280;13479;49.044;8.716;2023-04-28T13:38:55;98645.34;;;20.34;81.77
25610;BME280;13479;49.044;8.716;2023-04-28T13:41:20;98648.28;;;20.40;79.59
25610;BME280;13479;49.044;8.716;2023-04-28T13:43:46;98626.50;;;20.34;80.34
25610;BME280;13479;49.044;8.716;2023-04-28T13:46:11;98633.34;;;20.30;80.11
25610;BME280;13479;49.044;8.716;2023-04-28T13:48:37;98621.25;;;20.06;80.13
25610;BME280;13479;49.044;8.716;2023-04-28T13:51:04;98597.19;;;19.91;81.77
25610;BME280;13479;49.044;8.716;2023-04-28T13:53:30;98595.94;;;19.87;81.21
25610;BME280;13479;49.044;8.716;2023-04-28T13:55:55;98635.69;;;19.85;79.41
25610;BME280;13479;49.044;8.716;2023-04-28T13:58:25;98627.75;;;19.63;79.72
25610;BME280;13479;49.044;8.716;2023-04-28T14:00:51;98616.81;;;19.78;79.74
25610;BME280;13479;49.044;8.716;2023-04-28T14:03:18;98621.78;;;19.74;79.46
25610;BME280;13479;49.044;8.716;2023-04-28T14:05:45;98615.16;;;19.84;79.22
25610;BME280;13479;49.044;8.716;2023-04-28T14:08:11;98631.41;;;19.97;78.37
25610;BME280;13479;49.044;8.716;2023-04-28T14:10:36;98627.31;;;20.21;78.53
25610;BME280;13479;49.044;8.716;2023-04-28T14:13:01;98633.50;;;20.22;76.95
25610;BME280;13479;49.044;8.716;2023-04-28T14:15:27;98632.91;;;20.27;74.61
25610;BME280;13479;49.044;8.716;2023-04-28T14:17:52;98588.34;;;20.31;76.31
25610;BME280;13479;49.044;8.716;2023-04-28T14:20:18;98611.38;;;20.47;74.22
25610;BME280;13479;49.044;8.716;2023-04-28T14:22:43;98590.00;;;20.65;74.95
25610;BME280;13479;49.044;8.716;2023-04-28T14:25:08;98612.41;;;20.73;72.54
25610;BME280;13479;49.044;8.716;2023-04-28T14:27:34;98609.34;;;20.76;71.10
25610;BME280;13479;49.044;8.716;2023-04-28T14:29:59;98576.13;;;20.82;71.72
25610;BME280;13479;49.044;8.716;2023-04-28T14:32:25;98597.06;;;20.80;70.43
25610;BME280;13479;49.044;8.716;2023-04-28T14:34:50;98564.06;;;20.85;70.85
25610;BME280;13479;49.044;8.716;2023-04-28T14:37:16;98539.59;;;20.86;71.25
25610;BME280;13479;49.044;8.716;2023-04-28T14:39:42;98542.72;;;20.83;70.91
25610;BME280;13479;49.044;8.716;2023-04-28T14:42:08;98563.66;;;20.88;70.57
25610;BME280;13479;49.044;8.716;2023-04-28T14:44:34;98558.88;;;20.96;70.60
25610;BME280;13479;49.044;8.716;2023-04-28T14:47:00;98553.66;;;21.02;70.91
25610;BME280;13479;49.044;8.716;2023-04-28T14:49:26;98559.41;;;21.19;70.67
25610;BME280;13479;49.044;8.716;2023-04-28T14:51:52;98595.09;;;21.27;68.60
25610;BME280;13479;49.044;8.716;2023-04-28T14:54:18;98560.13;;;21.46;69.03
25610;BME280;13479;49.044;8.716;2023-04-28T14:56:43;98594.59;;;21.51;66.67
25610;BME280;13479;49.044;8.716;2023-04-28T14:59:08;98583.19;;;21.55;65.34
25610;BME280;13479;49.044;8.716;2023-04-28T15:01:35;98557.63;;;21.51;65.15
25610;BME280;13479;49.044;8.716;2023-04-28T15:04:00;98519.06;;;21.37;66.39
25610;BME280;13479;49.044;8.716;2023-04-28T15:06:26;98508.66;;;21.41;66.35
25610;BME280;13479;49.044;8.716;2023-04-28T15:08:52;98534.78;;;21.47;65.65
25610;BME280;13479;49.044;8.716;2023-04-28T15:11:17;98555.59;;;21.40;65.33
25610;BME280;13479;49.044;8.716;2023-04-28T15:13:42;98543.47;;;21.56;65.45
25610;BME280;13479;49.044;8.716;2023-04-28T15:16:07;98543.47;;;21.63;65.17
25610;BME280;13479;49.044;8.716;2023-04-28T15:18:33;98530.56;;;21.71;65.47
25610;BME280;13479;49.044;8.716;2023-04-28T15:21:00;98506.09;;;21.59;65.96
25610;BME280;13479;49.044;8.716;2023-04-28T15:23:25;98500.72;;;21.46;66.32
25610;BME280;13479;49.044;8.716;2023-04-28T15:25:51;98521.56;;;21.32;65.74
25610;BME280;13479;49.044;8.716;2023-04-28T15:28:17;98480.50;;;21.23;67.33
25610;BME280;13479;49.044;8.716;2023-04-28T15:30:43;98468.50;;;21.19;67.04
25610;BME280;13479;49.044;8.716;2023-04-28T15:33:08;98484.09;;;21.10;67.08
25610;BME280;13479;49.044;8.716;2023-04-28T15:35:33;98439.91;;;21.05;67.62
25610;BME280;13479;49.044;8.716;2023-04-28T15:37:59;98419.56;;;21.09;68.09
25610;BME280;13479;49.044;8.716;2023-04-28T15:40:24;98407.69;;;21.17;69.37
25610;BME280;13479;49.044;8.716;2023-04-28T15:42:50;98411.94;;;21.31;69.75
25610;BME280;13479;49.044;8.716;2023-04-28T15:45:18;98464.72;;;21.27;68.75
25610;BME280;13479;49.044;8.716;2023-04-28T15:47:47;98445.63;;;21.22;69.74
25610;BME280;13479;49.044;8.716;2023-04-28T15:50:14;98456.47;;;21.08;69.22
25610;BME280;13479;49.044;8.716;2023-04-28T15:52:41;98441.25;;;20.82;70.01
25610;BME280;13479;49.044;8.716;2023-04-28T15:55:10;98441.06;;;20.63;69.67
25610;BME280;13479;49.044;8.716;2023-04-28T15:57:35;98421.06;;;20.19;71.28
25610;BME280;13479;49.044;8.716;2023-04-28T16:00:01;98440.13;;;20.11;71.29
25610;BME280;13479;49.044;8.716;2023-04-28T16:02:27;98439.72;;;19.94;71.81
25610;BME280;13479;49.044;8.716;2023-04-28T16:04:53;98447.56;;;19.82;72.82
25610;BME280;13479;49.044;8.716;2023-04-28T16:07:18;98461.25;;;19.80;73.79
25610;BME280;13479;49.044;8.716;2023-04-28T16:09:43;98479.06;;;19.74;74.29
25610;BME280;13479;49.044;8.716;2023-04-28T16:12:08;98488.13;;;19.60;75.84
25610;BME280;13479;49.044;8.716;2023-04-28T16:14:34;98504.69;;;19.64;77.01
25610;BME280;13479;49.044;8.716;2023-04-28T16:17:00;98521.47;;;19.59;77.26
25610;BME280;13479;49.044;8.716;2023-04-28T16:19:25;98525.81;;;19.60;77.71
25610;BME280;13479;49.044;8.716;2023-04-28T16:21:51;98525.00;;;19.66;77.77
25610;BME280;13479;49.044;8.716;2023-04-28T16:24:16;98529.78;;;19.78;78.06
25610;BME280;13479;49.044;8.716;2023-04-28T16:26:41;98536.69;;;20.00;77.91
25610;BME280;13479;49.044;8.716;2023-04-28T16:29:06;98543.13;;;20.19;77.83
25610;BME280;13479;49.044;8.716;2023-04-28T16:31:32;98564.94;;;20.31;77.16
25610;BME280;13479;49.044;8.716;2023-04-28T16:33:57;98587.94;;;20.27;75.52
25610;BME280;13479;49.044;8.716;2023-04-28T16:36:23;98603.06;;;20.21;74.18
25610;BME280;13479;49.044;8.716;2023-04-28T16:38:49;98573.38;;;20.08;74.39
25610;BME280;13479;49.044;8.716;2023-04-28T16:41:14;98576.06;;;19.95;74.64
25610;BME280;13479;49.044;8.716;2023-04-28T16:43:40;98571.22;;;19.83;75.09
25610;BME280;13479;49.044;8.716;2023-04-28T16:46:05;98521.91;;;19.69;76.54
25610;BME280;13479;49.044;8.716;2023-04-28T16:48:31;98520.88;;;19.77;76.52
25610;BME280;13479;49.044;8.716;2023-04-28T16:50:56;98541.19;;;19.80;76.16
25610;BME280;13479;49.044;8.716;2023-04-28T16:53:21;98521.91;;;19.69;76.76
25610;BME280;13479;49.044;8.716;2023-04-28T16:55:47;98535.38;;;19.69;75.83
25610;BME280;13479;49.044;8.716;2023-04-28T16:58:12;98558.97;;;19.67;75.46
25610;BME280;13479;49.044;8.716;2023-04-28T17:00:37;98534.25;;;19.43;76.05
25610;BME280;13479;49.044;8.716;2023-04-28T17:03:03;98523.72;;;19.49;76.25
25610;BME280;13479;49.044;8.716;2023-04-28T17:05:30;98494.88;;;19.29;77.30
25610;BME280;13479;49.044;8.716;2023-04-28T17:07:56;98491.13;;;19.17;78.33
25610;BME280;13479;49.044;8.716;2023-04-28T17:10:21;98510.56;;;19.12;78.99
25610;BME280;13479;49.044;8.716;2023-04-28T17:12:47;98516.81;;;18.91;78.74
25610;BME280;13479;49.044;8.716;2023-04-28T17:15:13;98526.38;;;18.93;78.85
25610;BME280;13479;49.044;8.716;2023-04-28T17:17:39;98527.09;;;18.80;79.54
25610;BME280;13479;49.044;8.716;2023-04-28T17:20:04;98544.47;;;18.78;80.17
25610;BME280;13479;49.044;8.716;2023-04-28T17:22:30;98541.50;;;18.66;81.00
25610;BME280;13479;49.044;8.716;2023-04-28T17:24:55;98549.88;;;18.49;81.35
25610;BME280;13479;49.044;8.716;2023-04-28T17:27:22;98558.16;;;18.55;81.43